Time;durP1;ratioP1;P1;durP2;ratioP2;P2;SDS_P1;SDS_P2;PMS_P1;PMS_P2;Temp;Humidity;BMP_temperature;BMP_pressure;BME280_temperature;BME280_humidity;BME280_pressure;Samples;Min_cycle;Max_cycle;Signal;HPM_P1;HPM_P2
2022/07/12 00:01:38;;;;;;;0.85;0.85;;;;;;;21.30;40.19;98580.94;5016196;28;20200;-66
2022/07/12 00:04:03;;;;;;;1.10;1.00;;;;;;;21.08;41.03;98571.09;5017100;28;20631;-66
2022/07/12 00:06:29;;;;;;;1.33;1.20;;;;;;;21.03;39.63;98581.34;5016214;28;20221;-66
2022/07/12 00:08:54;;;;;;;2.38;0.88;;;;;;;21.15;38.54;98585.25;5018814;28;20186;-65
2022/07/12 00:11:19;;;;;;;0.90;0.90;;;;;;;21.20;39.25;98582.94;5030132;28;20197;-65
2022/07/12 00:13:45;;;;;;;2.13;0.80;;;;;;;21.18;39.17;98580.50;5031772;28;20208;-66
2022/07/12 00:16:11;;;;;;;1.48;1.33;;;;;;;21.33;37.48;98588.53;5025207;28;20190;-66
2022/07/12 00:18:36;;;;;;;1.02;0.77;;;;;;;21.34;37.96;98592.78;5032043;28;20182;-66
2022/07/12 00:21:02;;;;;;;0.70;0.70;;;;;;;21.45;37.19;98595.06;5012654;28;20247;-66
2022/07/12 00:23:27;;;;;;;1.00;1.00;;;;;;;21.16;38.43;98584.28;5013047;28;20194;-66
2022/07/12 00:25:52;;;;;;;0.93;0.93;;;;;;;21.21;37.89;98581.97;5013644;28;20174;-66
2022/07/12 00:28:18;;;;;;;0.95;0.73;;;;;;;21.04;38.00;98588.25;5024923;28;20190;-65
2022/07/12 00:30:43;;;;;;;1.27;0.90;;;;;;;21.05;37.85;98569.63;5024294;28;20699;-65
2022/07/12 00:33:09;;;;;;;2.17;0.98;;;;;;;21.10;40.58;98592.84;5012730;28;20210;-65
2022/07/12 00:35:34;;;;;;;1.10;0.90;;;;;;;21.22;37.87;98599.41;5020073;28;20181;-66
2022/07/12 00:38:00;;;;;;;2.25;1.00;;;;;;;21.22;39.89;98594.13;5012154;28;20273;-66
2022/07/12 00:40:25;;;;;;;1.38;1.00;;;;;;;21.23;38.01;98601.03;5026192;28;20188;-65
2022/07/12 00:42:50;;;;;;;4.78;1.38;;;;;;;21.14;39.71;98596.75;5031310;28;20327;-65
2022/07/12 00:45:16;;;;;;;1.25;1.08;;;;;;;21.03;39.97;98599.75;5014316;28;20212;-66
2022/07/12 00:47:44;;;;;;;1.45;1.00;;;;;;;21.02;39.42;98593.66;5023314;28;20174;-65
2022/07/12 00:50:15;;;;;;;1.30;1.20;;;;;;;21.02;39.41;98593.66;5028077;28;20663;-65
2022/07/12 00:52:42;;;;;;;1.35;0.90;;;;;;;21.10;37.68;98590.22;5019869;28;20600;-65
2022/07/12 00:55:09;;;;;;;1.73;1.00;;;;;;;21.04;38.20;98601.41;5013029;28;20193;-65
2022/07/12 00:57:36;;;;;;;1.13;0.80;;;;;;;21.01;38.08;98597.28;5013517;28;20182;-67
2022/07/12 01:00:04;;;;;;;3.88;1.20;;;;;;;21.04;38.23;98599.56;5031531;28;20189;-65
2022/07/12 01:02:29;;;;;;;1.15;1.05;;;;;;;21.02;38.72;98601.56;5030792;28;20190;-65
2022/07/12 01:04:56;;;;;;;0.90;0.90;;;;;;;21.05;38.58;98597.78;5012581;28;20675;-66
2022/07/12 01:07:24;;;;;;;1.00;1.00;;;;;;;21.11;40.40;98600.56;5011721;28;20627;-66
2022/07/12 01:09:53;;;;;;;4.20;1.20;;;;;;;21.19;38.30;98604.97;5012978;28;20174;-66
2022/07/12 01:12:23;;;;;;;0.90;0.90;;;;;;;21.21;39.02;98597.75;5022460;28;20189;-65
2022/07/12 01:14:50;;;;;;;1.55;0.95;;;;;;;21.09;40.32;98588.56;5014646;28;20755;-66
2022/07/12 01:17:24;;;;;;;2.45;1.33;;;;;;;20.94;40.99;98600.72;5025791;28;20559;-66
2022/07/12 01:19:52;;;;;;;0.95;0.95;;;;;;;20.94;39.74;98600.72;5032801;28;20271;-67
2022/07/12 01:22:18;;;;;;;1.73;1.08;;;;;;;20.90;41.25;98600.25;5022723;28;20255;-65
2022/07/12 01:24:45;;;;;;;1.00;1.00;;;;;;;20.78;40.31;98590.16;5012753;28;20174;-66
2022/07/12 01:27:12;;;;;;;2.58;1.40;;;;;;;20.78;41.27;98600.69;5017518;28;20715;-65
2022/07/12 01:29:39;;;;;;;3.65;1.00;;;;;;;20.78;39.70;98598.06;5030827;28;20174;-65
2022/07/12 01:34:51;;;;;;;0.90;0.90;;;;;;;20.82;39.78;98586.25;5013158;28;20209;-66
2022/07/12 01:37:18;;;;;;;1.90;1.25;;;;;;;20.88;39.06;98590.84;5022832;28;20273;-65
2022/07/12 01:39:45;;;;;;;2.80;1.05;;;;;;;20.85;39.27;98596.41;5030493;28;20188;-66
2022/07/12 01:42:10;;;;;;;1.00;1.00;;;;;;;20.51;40.71;98593.13;5029438;28;20193;-66
2022/07/12 01:44:36;;;;;;;0.90;0.90;;;;;;;20.44;40.00;98587.69;5026831;28;20535;-66
2022/07/12 01:47:02;;;;;;;1.08;1.08;;;;;;;20.50;39.93;98589.66;5017981;28;20632;-66
2022/07/12 01:49:28;;;;;;;1.45;1.23;;;;;;;20.55;41.61;98594.44;5019482;28;20189;-66
2022/07/12 01:51:57;;;;;;;1.33;1.23;;;;;;;20.32;42.75;98589.00;5039791;28;20181;-66
2022/07/12 01:54:24;;;;;;;1.13;1.02;;;;;;;20.43;41.05;98590.47;5015652;28;20222;-64
2022/07/12 01:56:50;;;;;;;0.90;0.90;;;;;;;20.34;40.96;98588.84;5017256;28;20194;-66
2022/07/12 01:59:15;;;;;;;2.67;1.23;;;;;;;20.54;39.46;98592.78;5028593;28;20195;-66
2022/07/12 02:01:41;;;;;;;1.20;0.98;;;;;;;20.67;39.08;98593.97;5014587;28;20190;-64
2022/07/12 02:04:07;;;;;;;1.00;0.98;;;;;;;20.78;38.97;98585.75;5012562;28;20265;-65
2022/07/12 02:06:33;;;;;;;1.52;1.42;;;;;;;20.60;40.42;98586.88;5010714;28;20275;-66
2022/07/12 02:08:59;;;;;;;1.65;1.13;;;;;;;20.48;41.96;98585.56;5025192;28;20239;-65
2022/07/12 02:11:24;;;;;;;1.98;1.00;;;;;;;20.47;41.57;98586.53;5020941;28;20205;-65
2022/07/12 02:13:50;;;;;;;1.27;1.08;;;;;;;20.50;41.69;98587.03;5010456;28;20209;-66
2022/07/12 02:16:16;;;;;;;1.00;1.00;;;;;;;20.58;39.29;98591.50;5016015;28;20245;-67
2022/07/12 02:18:42;;;;;;;1.10;1.10;;;;;;;20.36;42.42;98590.31;5010630;28;20186;-66
2022/07/12 02:21:08;;;;;;;0.90;0.90;;;;;;;20.34;39.92;98591.47;5020515;28;20726;-66
2022/07/12 02:23:33;;;;;;;3.53;1.30;;;;;;;20.46;39.16;98590.16;5031058;28;20661;-66
2022/07/12 02:25:59;;;;;;;1.48;0.90;;;;;;;20.29;41.23;98591.91;5019936;28;20585;-66
2022/07/12 02:28:24;;;;;;;1.50;1.40;;;;;;;20.22;43.19;98587.50;5011596;28;20182;-66
2022/07/12 02:30:50;;;;;;;2.55;1.00;;;;;;;20.21;40.62;98599.81;5022774;28;20189;-66
2022/07/12 02:33:15;;;;;;;2.08;1.00;;;;;;;20.28;39.36;98586.84;5011179;28;20198;-65
2022/07/12 02:35:43;;;;;;;1.00;1.00;;;;;;;20.19;43.08;98588.63;5025751;28;20577;-67
2022/07/12 02:38:09;;;;;;;2.10;1.42;;;;;;;19.96;44.26;98594.59;5010707;28;20240;-66
2022/07/12 02:40:53;;;;;;;1.30;1.27;;;;;;;19.80;44.72;98587.47;5021574;28;20226;-65
2022/07/12 02:43:19;;;;;;;1.10;1.10;;;;;;;19.87;43.29;98596.38;5016241;28;20502;-66
2022/07/12 02:45:44;;;;;;;3.55;1.42;;;;;;;19.56;45.39;98584.75;5011129;28;20685;-65
2022/07/12 02:48:12;;;;;;;1.40;1.30;;;;;;;19.39;45.42;98592.69;5026505;28;20298;-66
2022/07/12 02:50:38;;;;;;;1.35;1.20;;;;;;;19.29;45.33;98597.25;5019496;28;20190;-66
2022/07/12 02:53:04;;;;;;;2.88;1.25;;;;;;;19.04;44.24;98598.84;5014754;28;20726;-66
2022/07/12 02:55:29;;;;;;;2.35;1.48;;;;;;;19.16;44.41;98599.38;5008134;28;20189;-65
2022/07/12 02:57:55;;;;;;;1.17;1.17;;;;;;;19.17;45.52;98593.19;5020606;28;20186;-65
2022/07/12 03:00:20;;;;;;;1.10;1.00;;;;;;;19.18;43.63;98600.09;5021453;28;20181;-65
2022/07/12 03:02:46;;;;;;;2.38;1.52;;;;;;;19.34;44.29;98606.28;5014145;28;20249;-66
2022/07/12 03:05:12;;;;;;;2.20;1.40;;;;;;;19.30;45.26;98604.13;5013053;28;20186;-66
2022/07/12 03:07:37;;;;;;;1.45;1.35;;;;;;;19.38;46.29;98597.13;5026738;28;20231;-66
2022/07/12 03:10:05;;;;;;;2.15;1.17;;;;;;;19.37;45.17;98594.66;5019930;28;20183;-66
2022/07/12 03:12:30;;;;;;;1.75;1.20;;;;;;;19.29;44.12;98597.25;5018077;28;20178;-66
2022/07/12 03:14:56;;;;;;;1.48;1.25;;;;;;;19.46;43.70;98604.22;5027022;28;20205;-66
2022/07/12 03:17:22;;;;;;;2.78;1.20;;;;;;;19.51;43.52;98608.03;5009149;28;20675;-65
2022/07/12 03:19:47;;;;;;;3.05;1.30;;;;;;;19.56;43.80;98610.16;5030971;28;20182;-65
2022/07/12 03:22:13;;;;;;;1.30;1.20;;;;;;;19.62;43.72;98614.78;5017979;28;20178;-65
2022/07/12 03:24:38;;;;;;;1.65;1.10;;;;;;;19.68;43.56;98614.16;5015372;28;20182;-65
2022/07/12 03:27:04;;;;;;;2.67;0.90;;;;;;;19.74;43.36;98605.66;5032366;28;20792;-65
2022/07/12 03:29:29;;;;;;;2.05;1.13;;;;;;;19.83;43.79;98615.22;5027210;28;20189;-65
2022/07/12 03:31:55;;;;;;;1.67;0.98;;;;;;;19.84;43.09;98609.84;5031352;28;20218;-66
2022/07/12 03:34:20;;;;;;;2.47;1.10;;;;;;;19.90;43.52;98613.63;5011940;28;20210;-65
2022/07/12 03:36:45;;;;;;;1.70;1.20;;;;;;;19.81;43.75;98609.31;5009866;28;20268;-66
2022/07/12 03:39:11;;;;;;;0.95;0.95;;;;;;;19.86;43.57;98617.53;5019281;28;20185;-66
2022/07/12 03:41:37;;;;;;;1.17;1.10;;;;;;;19.94;43.67;98617.59;5014258;28;20265;-66
2022/07/12 03:44:03;;;;;;;2.65;1.88;;;;;;;19.96;43.92;98619.06;5017223;28;20181;-66
2022/07/12 03:46:28;;;;;;;1.85;1.08;;;;;;;20.01;44.14;98610.72;5033755;28;20188;-66
2022/07/12 03:48:53;;;;;;;4.13;1.02;;;;;;;20.09;42.84;98616.84;5024403;28;20644;-65
2022/07/12 03:51:19;;;;;;;1.70;1.13;;;;;;;20.15;43.01;98624.09;5024513;28;20174;-66
2022/07/12 03:53:44;;;;;;;2.08;1.00;;;;;;;20.23;43.38;98629.34;5018247;28;20601;-66
2022/07/12 03:57:13;;;;;;;1.13;1.02;;;;;;;20.13;44.28;98627.84;5014690;28;20320;-65
2022/07/12 03:58:55;;;;;;;1.27;1.10;;;;;;;20.07;45.18;98626.69;5013181;28;20194;-65
2022/07/12 04:01:20;;;;;;;2.58;1.38;;;;;;;20.01;44.46;98619.41;5029232;28;20189;-65
2022/07/12 04:03:46;;;;;;;2.03;1.00;;;;;;;20.02;44.96;98597.41;5027070;28;20267;-65
2022/07/12 04:06:11;;;;;;;1.13;1.02;;;;;;;20.43;44.93;98622.84;5014598;28;20213;-65
2022/07/12 04:08:37;;;;;;;1.52;1.40;;;;;;;20.71;44.63;98631.28;5014384;28;20189;-65
2022/07/12 04:11:02;;;;;;;3.17;1.20;;;;;;;20.94;43.83;98627.03;5015094;28;20192;-65
2022/07/12 04:13:27;;;;;;;3.72;1.13;;;;;;;21.08;43.74;98629.00;5033192;28;20299;-65
2022/07/12 04:15:53;;;;;;;1.20;1.05;;;;;;;21.27;43.81;98634.75;5037077;28;20674;-65
2022/07/12 04:18:18;;;;;;;2.38;1.02;;;;;;;21.31;41.93;98636.06;5021630;28;20177;-67
2022/07/12 04:20:44;;;;;;;2.80;0.95;;;;;;;21.31;41.02;98640.50;5013624;28;20659;-66
2022/07/12 04:23:09;;;;;;;4.28;1.02;;;;;;;21.35;41.95;98641.81;5038330;28;20175;-65
2022/07/12 04:25:34;;;;;;;1.83;0.90;;;;;;;21.32;43.44;98642.97;5022706;28;20647;-66
2022/07/12 04:28:00;;;;;;;3.60;1.10;;;;;;;21.31;43.08;98633.44;5017796;28;20178;-67
2022/07/12 04:30:28;;;;;;;1.25;0.88;;;;;;;21.35;43.97;98650.56;5018005;28;20187;-66
2022/07/12 04:32:54;;;;;;;2.67;0.80;;;;;;;21.27;43.97;98647.09;5025083;28;20182;-67
2022/07/12 04:35:19;;;;;;;1.15;1.00;;;;;;;21.40;43.36;98655.31;5029027;28;20197;-67
2022/07/12 04:37:45;;;;;;;3.47;1.58;;;;;;;21.37;43.47;98655.63;5012802;28;20214;-67
2022/07/12 04:40:11;;;;;;;5.13;1.30;;;;;;;21.24;44.37;98650.88;5018337;28;20197;-65
2022/07/12 04:42:36;;;;;;;3.15;1.40;;;;;;;21.03;45.52;98652.38;5029991;28;20650;-65
2022/07/12 04:45:03;;;;;;;2.30;1.50;;;;;;;21.03;47.19;98644.50;5032360;28;20313;-66
2022/07/12 04:47:28;;;;;;;2.38;1.40;;;;;;;21.02;47.24;98645.44;5032321;28;20176;-66
2022/07/12 04:49:54;;;;;;;5.65;1.38;;;;;;;21.00;47.85;98650.06;5026863;28;20311;-66
2022/07/12 04:52:19;;;;;;;1.27;1.23;;;;;;;20.89;49.56;98645.13;5031680;28;20685;-65
2022/07/12 04:54:45;;;;;;;3.75;1.30;;;;;;;20.90;48.34;98657.28;5024035;28;20221;-65
2022/07/12 04:57:10;;;;;;;3.45;1.38;;;;;;;20.61;51.30;98641.09;5032097;28;20196;-66
2022/07/12 04:59:35;;;;;;;8.23;1.42;;;;;;;20.89;49.82;98655.66;5029718;28;20265;-66
2022/07/12 05:02:02;;;;;;;3.40;1.20;;;;;;;21.10;50.39;98653.38;5020973;28;20173;-66
2022/07/12 05:04:27;;;;;;;5.60;1.20;;;;;;;21.27;48.44;98660.25;5021376;28;20604;-66
2022/07/12 05:06:52;;;;;;;3.00;1.38;;;;;;;21.42;48.34;98653.31;5027199;28;20296;-66
2022/07/12 05:09:18;;;;;;;2.15;1.42;;;;;;;21.50;47.09;98653.31;5025795;28;20215;-66
2022/07/12 05:11:43;;;;;;;2.85;1.23;;;;;;;21.68;45.32;98653.97;5011367;28;20572;-66
2022/07/12 05:14:09;;;;;;;6.75;1.80;;;;;;;21.82;46.54;98648.00;5012799;28;20206;-66
2022/07/12 05:16:34;;;;;;;2.83;1.25;;;;;;;21.64;47.43;98650.00;5011876;28;20235;-66
2022/07/12 05:19:01;;;;;;;2.85;1.40;;;;;;;21.64;48.13;98653.47;5019784;28;20289;-66
2022/07/12 05:21:26;;;;;;;1.35;1.25;;;;;;;21.71;48.18;98649.19;5017479;28;20185;-66
2022/07/12 05:23:52;;;;;;;2.10;1.30;;;;;;;21.73;47.44;98657.72;5020706;28;20181;-65
2022/07/12 05:26:18;;;;;;;6.78;1.27;;;;;;;21.64;46.80;98650.00;5018019;28;20177;-66
2022/07/12 05:28:44;;;;;;;1.95;1.30;;;;;;;21.74;47.32;98658.56;5017929;28;20247;-66
2022/07/12 05:31:10;;;;;;;2.25;1.60;;;;;;;21.79;47.52;98658.88;5015631;28;20320;-66
2022/07/12 05:33:35;;;;;;;2.13;1.20;;;;;;;21.80;48.58;98657.91;5019792;28;20215;-65
2022/07/12 05:36:01;;;;;;;4.35;1.33;;;;;;;21.78;49.93;98655.41;5023313;28;20194;-65
2022/07/12 05:38:26;;;;;;;2.78;1.20;;;;;;;21.68;48.38;98660.03;5018897;28;20181;-65
2022/07/12 05:40:52;;;;;;;2.78;1.52;;;;;;;21.65;49.10;98660.38;5015813;28;20292;-65
2022/07/12 05:43:17;;;;;;;4.22;1.63;;;;;;;21.67;49.51;98665.47;5017376;28;20185;-66
2022/07/12 05:45:43;;;;;;;3.30;1.20;;;;;;;21.76;50.12;98662.69;5019933;28;20209;-66
2022/07/12 05:48:09;;;;;;;2.58;1.30;;;;;;;21.77;49.25;98656.41;5020674;28;20633;-65
2022/07/12 05:50:34;;;;;;;1.38;1.20;;;;;;;21.99;46.22;98663.59;5010904;28;20213;-66
2022/07/12 05:55:44;;;;;;;1.95;1.20;;;;;;;22.39;41.45;98658.16;5026715;28;20228;-66
2022/07/12 05:58:10;;;;;;;2.30;1.30;;;;;;;22.56;39.93;98661.53;5013951;28;20245;-65
2022/07/12 06:00:36;;;;;;;5.30;0.90;;;;;;;22.54;39.03;98668.78;5002783;28;20190;-65
2022/07/12 06:03:01;;;;;;;0.73;0.73;;;;;;;22.60;39.40;98671.56;5015402;28;20677;-65
2022/07/12 06:05:27;;;;;;;2.10;1.00;;;;;;;22.57;39.25;98671.09;5017768;28;20624;-65
2022/07/12 06:07:53;;;;;;;3.88;1.20;;;;;;;22.70;38.01;98663.41;5016983;28;20601;-65
2022/07/12 06:10:18;;;;;;;2.70;0.90;;;;;;;22.73;38.93;98661.25;5019304;28;20205;-66
2022/07/12 06:12:44;;;;;;;2.13;1.00;;;;;;;22.84;38.25;98665.31;5016657;28;20568;-65
2022/07/12 06:15:10;;;;;;;3.55;1.10;;;;;;;22.88;37.73;98658.66;5019026;28;20244;-65
2022/07/12 06:17:35;;;;;;;1.33;1.15;;;;;;;23.00;36.89;98665.19;5021642;28;20194;-65
2022/07/12 06:20:02;;;;;;;2.28;1.08;;;;;;;22.98;37.24;98664.53;5010698;28;20218;-65
2022/07/12 06:22:27;;;;;;;3.22;0.85;;;;;;;22.96;37.75;98663.91;5002775;28;20673;-65
2022/07/12 06:24:53;;;;;;;4.55;0.80;;;;;;;22.96;37.30;98663.91;4996999;28;20384;-65
2022/07/12 06:27:18;;;;;;;1.95;0.80;;;;;;;22.95;37.48;98657.00;5001107;28;20194;-65
2022/07/12 06:29:47;;;;;;;2.38;0.82;;;;;;;23.06;37.17;98669.75;5021051;28;20644;-66
2022/07/12 06:32:14;;;;;;;1.25;0.70;;;;;;;23.16;37.24;98663.25;5023153;28;20220;-65
2022/07/12 06:34:40;;;;;;;3.20;1.05;;;;;;;23.18;37.43;98663.09;5018181;28;20302;-65
2022/07/12 06:37:08;;;;;;;2.75;0.80;;;;;;;23.19;36.81;98660.28;5012441;28;20226;-65
2022/07/12 06:39:33;;;;;;;1.02;0.68;;;;;;;23.30;36.70;98664.31;5023660;28;20796;-65
2022/07/12 06:41:59;;;;;;;4.30;0.80;;;;;;;23.39;37.39;98679.91;5014065;28;20226;-65
2022/07/12 06:44:24;;;;;;;1.17;0.70;;;;;;;23.19;36.73;98649.72;5014435;28;20265;-65
2022/07/12 06:46:49;;;;;;;1.63;0.82;;;;;;;23.21;37.43;98657.47;5017032;28;20181;-65
2022/07/12 06:49:15;;;;;;;2.50;1.00;;;;;;;23.32;37.42;98659.69;5018194;28;20556;-65
2022/07/12 06:51:40;;;;;;;1.40;0.73;;;;;;;23.38;37.42;98654.50;5021106;28;20186;-65
2022/07/12 06:54:06;;;;;;;1.15;0.90;;;;;;;23.39;37.00;98665.88;5020107;28;20214;-65
2022/07/12 06:56:31;;;;;;;1.00;0.90;;;;;;;23.49;36.79;98661.16;5020671;28;20651;-66
2022/07/12 06:58:57;;;;;;;2.10;0.85;;;;;;;23.57;35.82;98659.28;5021508;28;20720;-66
2022/07/12 07:01:22;;;;;;;3.65;0.70;;;;;;;23.55;35.73;98655.97;5018103;28;20712;-65
2022/07/12 07:03:47;;;;;;;3.55;0.60;;;;;;;23.62;36.72;98659.56;5024797;28;20622;-65
2022/07/12 07:06:13;;;;;;;1.75;0.60;;;;;;;23.58;35.09;98662.72;5019264;28;20466;-65
2022/07/12 07:08:38;;;;;;;1.45;0.95;;;;;;;23.40;35.03;98659.59;5021437;28;20193;-65
2022/07/12 07:11:04;;;;;;;1.15;0.70;;;;;;;23.40;36.11;98654.31;5028338;28;20612;-65
2022/07/12 07:13:29;;;;;;;1.58;0.50;;;;;;;23.39;36.22;98663.25;5024661;28;20675;-65
2022/07/12 07:15:55;;;;;;;3.22;0.85;;;;;;;23.46;35.94;98672.91;5017061;28;20188;-65
2022/07/12 07:18:20;;;;;;;2.90;0.65;;;;;;;23.52;36.59;98661.63;5010997;28;20866;-65
2022/07/12 07:20:45;;;;;;;0.88;0.70;;;;;;;23.58;35.94;98666.19;5021049;28;20209;-65
2022/07/12 07:23:14;;;;;;;3.35;0.90;;;;;;;23.67;35.48;98669.56;5019916;28;20713;-65
2022/07/12 07:25:39;;;;;;;0.73;0.73;;;;;;;23.81;35.97;98656.38;5019981;28;20190;-65
2022/07/12 07:28:04;;;;;;;1.98;0.70;;;;;;;23.83;35.20;98676.34;5019333;28;20186;-65
2022/07/12 07:33:14;;;;;;;1.20;0.70;;;;;;;23.88;36.05;98657.31;5025312;28;20189;-65
2022/07/12 07:35:39;;;;;;;6.80;0.98;;;;;;;24.02;35.98;98653.84;5028318;28;20190;-66
2022/07/12 07:38:05;;;;;;;2.25;1.00;;;;;;;24.02;35.70;98663.59;5020709;28;20256;-65
2022/07/12 07:40:30;;;;;;;1.70;0.70;;;;;;;24.06;35.85;98672.81;5015950;28;20194;-65
2022/07/12 07:42:56;;;;;;;1.55;0.80;;;;;;;24.04;36.04;98663.22;5016053;28;20179;-66
2022/07/12 07:45:21;;;;;;;2.15;0.88;;;;;;;24.08;35.81;98667.16;5025293;28;20673;-66
2022/07/12 07:47:48;;;;;;;3.15;0.80;;;;;;;24.13;35.80;98660.50;5018175;28;20180;-65
2022/07/12 07:50:15;;;;;;;4.88;0.80;;;;;;;24.13;35.37;98667.41;5019952;28;20196;-66
2022/07/12 07:52:40;;;;;;;0.70;0.70;;;;;;;24.16;35.16;98671.50;5007502;28;20267;-65
2022/07/12 07:55:06;;;;;;;3.05;0.73;;;;;;;24.21;35.77;98666.50;5017642;28;20202;-65
2022/07/12 07:57:31;;;;;;;2.33;0.90;;;;;;;24.27;36.03;98679.00;5015532;28;20187;-65
2022/07/12 07:59:57;;;;;;;3.83;1.02;;;;;;;24.30;35.77;98678.59;5017102;28;20170;-66
2022/07/12 08:02:22;;;;;;;3.15;1.08;;;;;;;24.31;36.07;98662.56;5022679;28;20584;-65
2022/07/12 08:04:47;;;;;;;3.58;1.00;;;;;;;24.43;36.12;98660.28;5013553;28;20237;-65
2022/07/12 08:07:13;;;;;;;8.70;1.65;;;;;;;24.53;35.44;98668.72;5015890;28;20190;-65
2022/07/12 08:09:39;;;;;;;2.92;0.80;;;;;;;24.60;35.67;98664.34;5017912;28;20194;-66
2022/07/12 08:12:05;;;;;;;2.10;0.82;;;;;;;24.60;34.69;98670.47;5020971;28;20186;-65
2022/07/12 08:14:30;;;;;;;1.35;0.70;;;;;;;24.56;35.04;98663.06;5015855;28;20202;-66
2022/07/12 08:16:56;;;;;;;1.60;0.80;;;;;;;24.63;34.91;98651.56;5025402;28;20268;-65
2022/07/12 08:19:21;;;;;;;2.92;1.15;;;;;;;24.68;34.78;98657.09;5020010;28;20182;-65
2022/07/12 08:21:47;;;;;;;3.00;0.98;;;;;;;24.75;35.40;98658.00;5027146;28;20189;-65
2022/07/12 08:24:12;;;;;;;5.82;1.08;;;;;;;24.75;34.75;98652.72;5025979;28;20248;-66
2022/07/12 08:26:39;;;;;;;1.73;0.77;;;;;;;24.75;33.57;98642.13;5021899;28;20648;-65
2022/07/12 08:29:05;;;;;;;2.03;0.77;;;;;;;24.82;34.88;98648.31;4999706;28;20494;-66
2022/07/12 08:31:30;;;;;;;4.13;0.85;;;;;;;24.83;34.82;98649.09;4998796;28;20597;-65
2022/07/12 08:33:56;;;;;;;1.65;0.60;;;;;;;24.88;34.24;98641.41;5006736;28;20793;-66
2022/07/12 08:36:21;;;;;;;1.60;0.70;;;;;;;24.89;35.07;98640.41;5011595;28;20190;-66
2022/07/12 08:38:46;;;;;;;3.00;0.73;;;;;;;24.97;35.37;98635.78;5017558;28;20281;-65
2022/07/12 08:41:13;;;;;;;2.08;0.90;;;;;;;24.95;34.36;98640.47;5021006;28;20650;-65
2022/07/12 08:43:39;;;;;;;2.03;1.05;;;;;;;24.97;34.53;98641.09;5017677;28;20179;-65
2022/07/12 08:46:06;;;;;;;3.03;1.50;;;;;;;24.89;34.47;98640.41;5015377;28;20204;-65
2022/07/12 08:48:33;;;;;;;6.00;1.10;;;;;;;24.87;33.13;98635.31;5010730;28;20186;-65
2022/07/12 08:51:04;;;;;;;1.10;0.80;;;;;;;24.82;33.68;98631.59;5016589;28;20185;-66
2022/07/12 08:53:31;;;;;;;4.65;0.90;;;;;;;24.86;33.60;98625.75;5018411;28;20213;-65
2022/07/12 08:55:57;;;;;;;1.95;1.27;;;;;;;24.98;33.78;98626.03;5016306;28;20186;-65
2022/07/12 08:58:22;;;;;;;3.03;1.00;;;;;;;25.09;33.08;98628.97;5012913;28;20626;-66
2022/07/12 09:00:48;;;;;;;2.20;1.10;;;;;;;25.14;32.82;98631.88;5008295;28;20178;-65
2022/07/12 09:03:14;;;;;;;2.38;0.98;;;;;;;25.15;32.16;98620.28;5014496;28;20189;-65
2022/07/12 09:05:53;;;;;;;2.45;1.05;;;;;;;25.12;32.37;98622.47;5022439;28;20186;-66
2022/07/12 09:08:32;;;;;;;2.67;0.82;;;;;;;25.21;32.23;98619.53;5011949;28;20178;-65
2022/07/12 09:11:03;;;;;;;2.00;0.77;;;;;;;25.21;31.29;98622.19;5018569;28;20188;-65
2022/07/12 09:13:54;;;;;;;3.67;0.70;;;;;;;25.19;31.22;98615.44;5017319;28;20197;-66
2022/07/12 09:16:21;;;;;;;2.85;0.85;;;;;;;25.31;32.24;98617.38;5016313;28;20261;-65
2022/07/12 09:18:47;;;;;;;2.47;0.90;;;;;;;25.30;31.61;98618.41;5022917;28;20677;-65
2022/07/12 09:21:22;;;;;;;2.10;0.98;;;;;;;25.23;31.75;98616.66;5019584;28;20185;-65
2022/07/12 09:23:56;;;;;;;0.70;0.70;;;;;;;25.26;31.71;98614.47;5017112;28;20682;-66
2022/07/12 09:26:22;;;;;;;3.25;1.30;;;;;;;25.34;31.27;98617.00;5017991;28;20188;-65
2022/07/12 09:28:50;;;;;;;2.28;0.98;;;;;;;25.42;30.57;98608.09;5017335;28;20235;-65
2022/07/12 09:31:15;;;;;;;0.93;0.82;;;;;;;25.37;31.14;98616.59;5021447;28;20242;-65
2022/07/12 09:36:25;;;;;;;0.95;0.73;;;;;;;25.28;31.38;98606.34;5020312;28;20180;-65
2022/07/12 09:38:53;;;;;;;1.10;0.70;;;;;;;25.34;30.79;98603.75;5012662;28;20186;-66
2022/07/12 09:41:21;;;;;;;1.65;0.63;;;;;;;25.50;31.01;98600.81;5012493;28;20228;-66
2022/07/12 09:43:47;;;;;;;0.95;0.60;;;;;;;25.64;30.39;98601.69;5010510;28;20186;-65
2022/07/12 09:46:16;;;;;;;4.53;1.00;;;;;;;25.72;30.82;98606.84;5019435;28;20469;-65
2022/07/12 09:48:42;;;;;;;0.50;0.50;;;;;;;25.81;30.28;98601.19;5023251;28;20194;-66
2022/07/12 09:51:11;;;;;;;1.90;0.90;;;;;;;25.76;30.26;98597.47;5020388;28;20201;-65
2022/07/12 09:53:51;;;;;;;2.47;0.80;;;;;;;25.79;30.58;98599.75;5015321;28;20734;-65
2022/07/12 09:56:21;;;;;;;2.63;0.93;;;;;;;25.91;30.48;98604.34;5017667;28;20212;-65
2022/07/12 09:58:52;;;;;;;2.38;0.75;;;;;;;25.92;31.00;98595.38;5022295;28;20259;-65
2022/07/12 10:01:18;;;;;;;6.45;0.95;;;;;;;25.92;30.00;98595.38;5014227;28;20213;-65
2022/07/12 10:03:45;;;;;;;1.33;0.65;;;;;;;25.98;30.18;98594.56;5013459;28;20190;-65
2022/07/12 10:06:12;;;;;;;1.92;0.80;;;;;;;26.07;30.67;98592.56;5015581;28;20212;-66
2022/07/12 10:08:38;;;;;;;3.53;0.70;;;;;;;26.13;29.70;98589.94;5017759;28;20185;-66
2022/07/12 10:11:05;;;;;;;0.70;0.70;;;;;;;26.24;30.50;98594.66;5010053;28;20190;-65
2022/07/12 10:13:31;;;;;;;1.20;0.90;;;;;;;26.38;29.78;98577.78;5012669;28;20628;-66
2022/07/12 10:16:02;;;;;;;1.50;0.85;;;;;;;26.51;29.91;98584.94;5016240;28;20652;-66
2022/07/12 10:18:28;;;;;;;2.63;0.95;;;;;;;26.55;29.97;98579.06;5019165;28;20755;-65
2022/07/12 10:20:54;;;;;;;4.20;1.10;;;;;;;26.65;30.15;98581.34;5019505;28;20182;-66
2022/07/12 10:23:19;;;;;;;1.38;0.80;;;;;;;26.54;29.61;98580.06;5013354;28;20572;-66
2022/07/12 10:25:47;;;;;;;3.63;1.10;;;;;;;26.46;29.82;98582.88;5013927;28;20707;-66
2022/07/12 10:28:12;;;;;;;0.93;0.80;;;;;;;26.27;30.16;98572.22;5018947;28;20193;-65
2022/07/12 10:30:49;;;;;;;1.20;1.00;;;;;;;26.13;30.21;98570.56;5011161;28;20174;-65
2022/07/12 10:33:20;;;;;;;3.80;1.10;;;;;;;26.20;29.80;98561.59;5028218;28;20192;-66
2022/07/12 10:36:00;;;;;;;6.32;0.90;;;;;;;26.26;29.86;98558.16;5021509;28;20197;-65
2022/07/12 10:38:25;;;;;;;1.98;0.77;;;;;;;26.35;31.07;98559.59;5024159;28;20181;-65
2022/07/12 10:40:52;;;;;;;1.92;0.77;;;;;;;26.39;30.03;98550.22;5028382;28;20251;-65
2022/07/12 10:44:04;;;;;;;1.10;0.85;;;;;;;26.59;30.53;98560.91;5015280;28;20212;-65
2022/07/12 10:46:15;;;;;;;1.13;0.60;;;;;;;26.79;30.38;98551.94;5027577;28;20192;-65
2022/07/12 10:48:42;;;;;;;3.00;0.65;;;;;;;27.09;29.40;98547.84;5016375;28;20170;-65
2022/07/12 10:51:16;;;;;;;5.55;0.90;;;;;;;27.25;29.02;98551.94;5021055;28;20700;-66
2022/07/12 10:53:42;;;;;;;1.55;0.88;;;;;;;27.45;28.54;98558.84;5044018;28;20212;-66
2022/07/12 10:56:09;;;;;;;1.23;1.00;;;;;;;27.74;28.74;98547.72;5021261;28;20189;-66
2022/07/12 10:58:35;;;;;;;4.28;0.80;;;;;;;28.02;28.84;98545.59;5022598;28;20198;-66
2022/07/12 11:01:03;;;;;;;1.55;0.82;;;;;;;28.18;27.52;98550.44;5026941;28;20185;-66
2022/07/12 11:03:38;;;;;;;3.72;0.90;;;;;;;28.45;27.27;98557.25;5032853;28;20185;-66
2022/07/12 11:06:04;;;;;;;2.67;0.80;;;;;;;28.60;26.62;98555.13;5025050;28;20262;-66
2022/07/12 11:08:30;;;;;;;1.73;0.98;;;;;;;28.67;26.70;98550.56;5026358;28;20194;-66
2022/07/12 11:10:57;;;;;;;2.28;0.70;;;;;;;28.82;26.88;98548.41;5020335;28;20239;-65
2022/07/12 11:13:25;;;;;;;1.95;0.90;;;;;;;29.02;26.62;98548.25;5023672;28;20185;-65
2022/07/12 11:16:00;;;;;;;3.17;0.95;;;;;;;29.16;26.65;98547.91;5025408;28;20705;-65
2022/07/12 11:18:35;;;;;;;1.58;0.85;;;;;;;29.31;26.46;98543.06;5021508;28;20715;-66
2022/07/12 11:21:02;;;;;;;0.98;0.63;;;;;;;29.59;26.16;98556.75;5023356;28;20485;-66
2022/07/12 11:23:29;;;;;;;1.38;0.80;;;;;;;29.71;25.99;98541.63;5020974;28;20200;-66
2022/07/12 11:25:55;;;;;;;1.48;1.00;;;;;;;29.91;25.74;98544.88;5022287;28;20205;-66
2022/07/12 11:28:25;;;;;;;3.38;1.23;;;;;;;30.16;25.80;98542.94;5027840;28;20218;-66
2022/07/12 11:30:51;;;;;;;2.70;0.90;;;;;;;30.26;25.46;98540.53;5023297;28;20178;-66
2022/07/12 11:33:17;;;;;;;2.85;1.00;;;;;;;29.94;25.32;98546.28;5021221;28;20561;-66
2022/07/12 11:35:46;;;;;;;1.52;1.00;;;;;;;30.05;25.89;98548.19;5023215;28;20555;-66
2022/07/12 11:38:12;;;;;;;1.08;0.90;;;;;;;30.20;25.58;98536.09;5008005;28;20197;-66
2022/07/12 11:40:37;;;;;;;1.52;0.98;;;;;;;30.27;24.61;98523.50;5002522;28;20207;-66
2022/07/12 11:43:04;;;;;;;1.50;0.90;;;;;;;30.33;24.78;98529.78;5024138;28;20536;-66